Time;durP1;ratioP1;P1;durP2;ratioP2;P2;SDS_P1;SDS_P2;PMS_P1;PMS_P2;Temp;Humidity;BMP_temperature;BMP_pressure;BME280_temperature;BME280_humidity;BME280_pressure;Samples;Min_cycle;Max_cycle;Signal;HPM_P1;HPM_P2
2021/09/28 00:01:51;;;;;;;0.87;0.70;;;;;;;;;;5015683;28;20448;-89
2021/09/28 00:04:18;;;;;;;0.77;0.60;;;;;;;;;;5012819;28;20510;-91
2021/09/28 00:06:46;;;;;;;1.07;0.60;;;14.50;99.90;;;;;;5017191;28;20452;-89
2021/09/28 00:09:13;;;;;;;0.73;0.60;;;;;;;;;;5013687;28;20460;-89
2021/09/28 00:11:40;;;;;;;0.67;0.53;;;;;;;;;;5017506;28;20463;-92
2021/09/28 00:14:08;;;;;;;0.60;0.50;;;;;;;;;;5017369;28;20449;-91
2021/09/28 00:16:35;;;;;;;1.47;0.50;;;14.30;99.90;;;;;;5015364;28;20456;-89
2021/09/28 00:19:02;;;;;;;1.13;0.70;;;;;;;;;;5016339;28;20495;-90
2021/09/28 00:21:29;;;;;;;0.80;0.50;;;;;;;;;;5017440;28;20453;-88
2021/09/28 00:23:57;;;;;;;0.60;0.60;;;14.10;99.90;;;;;;5014355;28;20449;-90
2021/09/28 00:26:24;;;;;;;0.60;0.57;;;;;;;;;;5018025;28;20842;-89
2021/09/28 00:28:51;;;;;;;0.67;0.53;;;;;;;;;;5019060;28;20476;-88
2021/09/28 00:31:19;;;;;;;0.67;0.60;;;;;;;;;;5018279;28;20963;-89
2021/09/28 00:33:46;;;;;;;4.23;0.80;;;;;;;;;;5017456;28;20453;-89
2021/09/28 00:36:13;;;;;;;0.73;0.70;;;;;;;;;;5024723;28;20448;-87
2021/09/28 00:38:40;;;;;;;0.70;0.57;;;;;;;;;;5021682;28;20555;-88
2021/09/28 00:41:09;;;;;;;0.70;0.63;;;;;;;;;;5013442;28;20819;-89
2021/09/28 00:43:54;;;;;;;0.80;0.70;;;13.90;99.90;;;;;;5016974;28;20464;-89
2021/09/28 00:46:22;;;;;;;2.10;1.03;;;13.80;99.90;;;;;;5016950;28;20448;-89
2021/09/28 00:48:49;;;;;;;0.97;0.63;;;;;;;;;;5030365;28;20460;-87
2021/09/28 00:51:17;;;;;;;1.23;0.60;;;13.60;99.90;;;;;;5024991;28;20452;-91
2021/09/28 00:53:45;;;;;;;1.33;0.90;;;13.50;99.90;;;;;;5023954;28;20456;-88
2021/09/28 00:56:16;;;;;;;1.77;0.80;;;13.50;99.90;;;;;;5025729;28;20444;-88
2021/09/28 00:58:44;;;;;;;1.80;0.73;;;;;;;;;;5064646;22;20481;-88
2021/09/28 01:01:11;;;;;;;0.80;0.80;;;;;;;;;;5069931;28;20448;-88
2021/09/28 01:03:41;;;;;;;1.03;0.90;;;;;;;;;;5066050;28;20451;-88
2021/09/28 01:06:08;;;;;;;0.70;0.60;;;;;;;;;;5064262;28;20457;-89
2021/09/28 01:08:35;;;;;;;1.60;1.00;;;;;;;;;;5064698;28;20450;-88
2021/09/28 01:11:03;;;;;;;1.20;0.80;;;;;;;;;;5064953;28;20541;-86
2021/09/28 01:13:31;;;;;;;1.33;0.87;;;12.90;99.90;;;;;;5067011;28;20451;-87
2021/09/28 01:16:10;;;;;;;1.80;0.83;;;12.90;99.90;;;;;;5065554;28;20447;-88
2021/09/28 01:18:38;;;;;;;1.73;1.10;;;12.60;99.90;;;;;;5066080;28;20512;-87
2021/09/28 01:21:10;;;;;;;2.13;1.10;;;12.50;99.90;;;;;;5067308;28;20443;-91
2021/09/28 01:23:44;;;;;;;2.03;0.90;;;;;;;;;;5069334;22;21007;-87
2021/09/28 01:26:11;;;;;;;1.37;0.90;;;;;;;;;;5079503;22;20487;-87
2021/09/28 01:28:38;;;;;;;3.37;1.10;;;;;;;;;;5054290;23;20558;-89
2021/09/28 01:31:05;;;;;;;2.73;0.90;;;;;;;;;;5047061;28;20438;-89
2021/09/28 01:33:32;;;;;;;5.40;1.20;;;;;;;;;;5047822;28;20462;-86
2021/09/28 01:35:59;;;;;;;4.83;1.10;;;;;;;;;;5047689;28;20550;-88
2021/09/28 01:38:28;;;;;;;3.17;0.80;;;;;;;;;;5048648;28;20467;-87
2021/09/28 01:41:00;;;;;;;2.00;1.03;;;12.40;99.90;;;;;;5089543;22;20582;-87
2021/09/28 01:43:27;;;;;;;2.87;1.17;;;;;;;;;;5044584;28;20470;-87
2021/09/28 01:45:59;;;;;;;4.53;1.13;;;12.40;99.90;;;;;;5048519;28;20452;-89
2021/09/28 01:48:31;;;;;;;2.87;1.30;;;12.40;99.90;;;;;;5046856;22;20476;-87
2021/09/28 01:50:58;;;;;;;2.27;1.00;;;;;;;;;;5028505;28;20496;-89
2021/09/28 01:53:25;;;;;;;4.73;1.17;;;;;;;;;;5046148;22;20477;-89
2021/09/28 01:55:58;;;;;;;2.40;1.20;;;12.40;99.90;;;;;;5065565;23;21055;-88
2021/09/28 01:58:25;;;;;;;3.90;0.93;;;;;;;;;;5069895;28;20469;-88
2021/09/28 02:00:52;;;;;;;3.90;1.10;;;;;;;;;;5085214;28;20461;-87
2021/09/28 02:03:21;;;;;;;3.13;1.23;;;12.40;99.90;;;;;;5082916;23;20522;-88
2021/09/28 02:05:49;;;;;;;1.03;0.87;;;;;;;;;;5065981;28;20451;-89
2021/09/28 02:08:17;;;;;;;2.73;0.83;;;;;;;;;;5063260;28;20482;-88
2021/09/28 02:10:44;;;;;;;3.07;0.90;;;;;;;;;;5067584;28;20438;-89
2021/09/28 02:13:14;;;;;;;1.83;1.10;;;12.40;99.90;;;;;;5069596;28;20510;-87
2021/09/28 02:15:41;;;;;;;2.30;1.03;;;;;;;;;;5066281;28;20462;-89
2021/09/28 02:18:09;;;;;;;2.60;1.10;;;;;;;;;;5068398;28;20485;-88
2021/09/28 02:20:36;;;;;;;6.10;1.00;;;;;;;;;;5075977;28;20446;-88
2021/09/28 02:23:03;;;;;;;1.00;0.80;;;;;;;;;;5068764;28;20431;-88
2021/09/28 02:25:30;;;;;;;2.30;1.03;;;;;;;;;;5071540;28;20450;-89
2021/09/28 02:28:00;;;;;;;4.77;1.17;;;;;;;;;;5082389;22;20491;-87
2021/09/28 02:30:29;;;;;;;2.43;1.10;;;;;;;;;;5017324;28;20463;-89
2021/09/28 02:32:56;;;;;;;2.33;1.10;;;;;;;;;;5047383;28;20446;-89
2021/09/28 02:35:24;;;;;;;1.63;0.80;;;;;;;;;;5048815;28;20904;-87
2021/09/28 02:37:51;;;;;;;3.63;1.47;;;;;;;;;;5049425;28;20454;-89
2021/09/28 02:40:19;;;;;;;2.00;0.80;;;;;;;;;;5050607;28;20447;-89
2021/09/28 02:42:46;;;;;;;5.90;1.10;;;;;;;;;;5050345;28;20818;-89
2021/09/28 02:45:16;;;;;;;3.27;1.13;;;12.20;99.90;;;;;;5110421;22;20545;-88
2021/09/28 02:47:46;;;;;;;5.07;1.10;;;;;;;;;;5107855;28;20425;-89
2021/09/28 02:50:13;;;;;;;2.47;1.27;;;;;;;;;;5111087;28;20429;-88
2021/09/28 02:52:40;;;;;;;1.87;0.90;;;;;;;;;;5109805;28;20484;-89
2021/09/28 02:55:08;;;;;;;4.43;1.10;;;;;;;;;;5100849;28;20453;-88
2021/09/28 02:57:35;;;;;;;2.43;1.03;;;;;;;;;;5099907;28;20441;-89
2021/09/28 03:00:02;;;;;;;2.03;1.60;;;;;;;;;;5101271;28;20480;-88
2021/09/28 03:02:29;;;;;;;4.20;1.60;;;;;;;;;;5102278;28;20453;-89
2021/09/28 03:04:58;;;;;;;1.27;0.97;;;;;;;;;;5098379;28;20437;-88
2021/09/28 03:07:25;;;;;;;3.43;1.03;;;;;;;;;;5102337;28;20971;-89
2021/09/28 03:09:53;;;;;;;2.90;1.10;;;;;;;;;;5102082;28;20456;-89
2021/09/28 03:12:20;;;;;;;2.30;1.20;;;;;;;;;;5101981;28;20441;-89
2021/09/28 03:14:47;;;;;;;5.60;1.10;;;;;;;;;;5097210;28;20445;-89
2021/09/28 03:17:14;;;;;;;3.10;1.20;;;;;;;;;;5103181;22;20491;-90
2021/09/28 03:19:41;;;;;;;1.60;1.10;;;;;;;;;;5097107;28;20557;-88
2021/09/28 03:22:10;;;;;;;2.17;1.37;;;;;;;;;;5098684;28;20478;-90
2021/09/28 03:24:37;;;;;;;4.20;1.27;;;;;;;;;;5101509;28;20449;-88
2021/09/28 03:27:04;;;;;;;2.70;1.20;;;;;;;;;;5101389;28;20970;-88
2021/09/28 03:29:36;;;;;;;2.63;1.13;;;;;;;;;;5098492;28;20452;-88
2021/09/28 03:32:03;;;;;;;3.57;1.17;;;;;;;;;;5100896;28;20966;-89
2021/09/28 03:34:30;;;;;;;2.53;1.63;;;;;;;;;;5100466;28;20449;-88
2021/09/28 03:36:57;;;;;;;5.70;1.10;;;;;;;;;;5102873;28;20455;-89
2021/09/28 03:39:26;;;;;;;4.50;1.20;;;;;;;;;;5101170;28;21049;-88
2021/09/28 03:41:53;;;;;;;1.50;1.10;;;;;;;;;;5097215;28;20449;-89
2021/09/28 03:44:20;;;;;;;5.13;1.70;;;;;;;;;;5101555;28;20453;-88
2021/09/28 03:46:47;;;;;;;3.70;1.70;;;;;;;;;;5101313;28;20444;-89
2021/09/28 03:49:14;;;;;;;2.90;1.90;;;;;;;;;;5101808;28;20448;-88
2021/09/28 03:51:41;;;;;;;2.00;1.27;;;;;;;;;;5107565;28;20445;-89
2021/09/28 03:54:08;;;;;;;5.83;1.40;;;;;;;;;;5098385;28;20456;-89
2021/09/28 03:56:37;;;;;;;3.83;1.20;;;;;;;;;;5101824;28;20943;-88
2021/09/28 03:59:04;;;;;;;3.27;1.27;;;;;;;;;;5098639;28;20475;-88
2021/09/28 04:01:31;;;;;;;1.20;1.10;;;;;;;;;;5097246;28;20449;-88
2021/09/28 04:03:59;;;;;;;3.20;1.37;;;;;;;;;;5099752;28;20863;-88
2021/09/28 04:06:26;;;;;;;3.10;1.40;;;;;;;;;;5094811;28;20445;-89
2021/09/28 04:08:54;;;;;;;3.03;1.40;;;;;;;;;;5101665;28;20795;-89
2021/09/28 04:11:21;;;;;;;2.47;1.13;;;;;;;;;;5099921;28;20441;-89
2021/09/28 04:13:49;;;;;;;6.43;1.90;;;11.30;99.90;;;;;;5099990;28;20452;-90
2021/09/28 04:16:17;;;;;;;1.80;1.20;;;;;;;;;;5097414;28;20445;-90
2021/09/28 04:18:45;;;;;;;1.30;1.00;;;;;;;;;;5107175;28;20449;-89
2021/09/28 04:21:13;;;;;;;6.20;1.30;;;;;;;;;;5108165;22;20591;-89
2021/09/28 04:23:40;;;;;;;5.23;1.60;;;;;;;;;;5101527;28;20444;-89
2021/09/28 04:26:07;;;;;;;3.30;1.13;;;;;;;;;;5102527;28;20448;-89
2021/09/28 04:28:36;;;;;;;3.00;1.30;;;11.10;99.90;;;;;;5102851;28;20444;-90
2021/09/28 04:31:04;;;;;;;3.47;1.20;;;;;;;;;;5101624;28;20449;-89
2021/09/28 04:33:31;;;;;;;1.00;0.90;;;;;;;;;;5094192;28;20461;-88
2021/09/28 04:35:58;;;;;;;2.20;1.47;;;;;;;;;;5107018;22;20495;-88
2021/09/28 04:38:26;;;;;;;3.37;1.60;;;;;;;;;;5103352;22;20488;-88
2021/09/28 04:40:53;;;;;;;4.10;2.00;;;;;;;;;;5099551;28;20487;-89
2021/09/28 04:43:20;;;;;;;3.63;1.40;;;;;;;;;;5097981;28;20445;-89
2021/09/28 04:45:47;;;;;;;3.57;1.70;;;;;;;;;;5102687;28;20445;-90
2021/09/28 04:48:15;;;;;;;1.60;1.47;;;10.70;99.90;;;;;;5099773;28;20445;-89
2021/09/28 04:50:46;;;;;;;5.13;1.63;;;;;;;;;;5111750;22;20480;-88
2021/09/28 04:53:13;;;;;;;9.20;1.70;;;;;;;;;;5104743;28;20500;-90
2021/09/28 04:55:40;;;;;;;5.43;2.03;;;;;;;;;;5104818;28;20449;-89
2021/09/28 04:58:38;;;;;;;4.17;1.53;;;10.80;99.90;;;;;;5105939;28;20449;-89
2021/09/28 05:01:20;;;;;;;4.63;2.47;;;10.90;99.90;;;;;;5068274;28;20505;-88
2021/09/28 05:03:49;;;;;;;2.93;2.10;;;10.80;99.90;;;;;;5108552;28;20451;-89
2021/09/28 05:06:19;;;;;;;5.17;2.17;;;;;;;;;;5107815;28;20527;-90
2021/09/28 05:09:08;;;;;;;5.43;2.20;;;10.80;99.90;;;;;;5106233;28;20437;-89
2021/09/28 05:11:48;;;;;;;6.57;2.30;;;10.70;99.90;;;;;;5108120;28;20405;-89
2021/09/28 05:14:18;;;;;;;7.40;2.20;;;;;;;;;;5104799;28;20417;-90
2021/09/28 05:16:45;;;;;;;2.90;2.00;;;;;;;;;;5102273;28;20441;-89
2021/09/28 05:19:13;;;;;;;6.63;2.50;;;10.60;99.90;;;;;;5100605;28;20476;-89
2021/09/28 05:21:40;;;;;;;3.37;2.13;;;;;;;;;;5109715;28;20445;-89
2021/09/28 05:24:07;;;;;;;10.17;2.40;;;10.60;99.90;;;;;;5108482;28;20444;-89
2021/09/28 05:26:35;;;;;;;11.67;3.40;;;;;;;;;;5128056;22;20455;-89
2021/09/28 05:29:02;;;;;;;5.43;2.10;;;;;;;;;;5048202;28;20473;-88
2021/09/28 05:31:29;;;;;;;7.80;2.33;;;;;;;;;;5049381;28;20447;-89
2021/09/28 05:33:56;;;;;;;3.73;1.90;;;;;;;;;;5047827;28;20953;-89
2021/09/28 05:36:25;;;;;;;5.80;1.50;;;;;;;;;;5046248;28;20450;-88
2021/09/28 05:38:52;;;;;;;3.00;1.60;;;;;;;;;;5045597;28;20462;-88
2021/09/28 05:41:19;;;;;;;4.87;1.77;;;;;;;;;;5042020;28;20443;-88
2021/09/28 05:43:47;;;;;;;5.37;2.00;;;;;;;;;;5040071;28;20447;-89
2021/09/28 05:46:14;;;;;;;3.43;1.60;;;;;;;;;;5046788;28;20458;-89
2021/09/28 05:48:41;;;;;;;7.33;2.17;;;;;;;;;;5048211;28;20475;-88
2021/09/28 05:51:15;;;;;;;5.10;1.87;;;10.60;99.90;;;;;;5054030;23;20894;-89
2021/09/28 05:53:44;;;;;;;2.40;1.40;;;10.70;99.90;;;;;;5044809;28;20871;-89
2021/09/28 05:56:11;;;;;;;1.87;1.50;;;;;;;;;;5050435;28;20497;-90
2021/09/28 05:58:39;;;;;;;5.00;1.70;;;;;;;;;;5070287;28;20530;-88
2021/09/28 06:01:06;;;;;;;2.47;1.50;;;;;;;;;;5094995;22;20485;-88
2021/09/28 06:03:33;;;;;;;8.13;2.40;;;;;;;;;;5049567;28;20411;-89
2021/09/28 06:06:01;;;;;;;4.20;2.10;;;11.40;99.90;;;;;;5045334;28;20493;-89
2021/09/28 06:08:28;;;;;;;4.07;1.90;;;;;;;;;;5041655;28;20485;-89
2021/09/28 06:10:59;;;;;;;4.20;2.00;;;11.80;99.90;;;;;;5039009;28;20443;-89
2021/09/28 06:13:26;;;;;;;9.50;2.03;;;;;;;;;;5041905;28;20826;-88
2021/09/28 06:15:53;;;;;;;5.57;2.33;;;;;;;;;;5038580;28;20853;-91
2021/09/28 06:18:21;;;;;;;4.80;2.27;;;;;;;;;;5041667;28;20474;-89
2021/09/28 06:20:48;;;;;;;2.80;1.80;;;;;;;;;;5039104;28;20489;-88
2021/09/28 06:23:16;;;;;;;6.63;1.60;;;;;;;;;;5046738;28;20495;-90
2021/09/28 06:25:43;;;;;;;5.67;2.10;;;;;;;;;;5052956;22;20490;-90
2021/09/28 06:28:12;;;;;;;4.47;1.83;;;;;;;;;;5045087;28;20451;-88
2021/09/28 06:30:39;;;;;;;2.47;1.60;;;;;;;;;;5043369;28;20448;-90
2021/09/28 06:33:08;;;;;;;8.40;2.27;;;;;;;;;;5047200;28;20792;-88
2021/09/28 06:35:35;;;;;;;3.07;1.80;;;;;;;;;;5080303;23;20479;-88
2021/09/28 06:38:04;;;;;;;6.30;1.90;;;;;;;;;;5037899;28;20432;-90
2021/09/28 06:40:31;;;;;;;2.60;1.40;;;;;;;;;;5045747;28;20468;-90
2021/09/28 06:42:58;;;;;;;4.50;1.80;;;;;;;;;;5042863;28;20822;-90
2021/09/28 06:45:26;;;;;;;1.67;1.10;;;13.70;99.90;;;;;;5044925;28;20448;-90
2021/09/28 06:47:53;;;;;;;2.70;1.30;;;;;;;;;;5043804;28;20435;-90
2021/09/28 06:50:21;;;;;;;2.47;1.50;;;;;;;;;;5043165;28;20448;-89
2021/09/28 06:52:48;;;;;;;4.20;1.37;;;;;;;;;;5047156;28;20453;-91
2021/09/28 06:55:16;;;;;;;3.97;2.60;;;;;;;;;;5042691;28;20455;-90
2021/09/28 06:57:43;;;;;;;4.20;1.73;;;;;;;;;;5052198;28;20486;-90
2021/09/28 07:00:12;;;;;;;6.13;1.70;;;13.50;99.90;;;;;;5059128;28;20471;-90
2021/09/28 07:02:41;;;;;;;9.53;1.87;;;;;;;;;;5058383;28;20458;-94
2021/09/28 07:05:11;;;;;;;4.37;2.00;;;;;;;;;;5056276;28;21013;-93
2021/09/28 07:07:42;;;;;;;8.23;1.97;;;;;;;;;;5060899;28;20455;-93
2021/09/28 07:10:10;;;;;;;4.83;1.90;;;;;;;;;;5062927;28;20470;-94
2021/09/28 07:12:40;;;;;;;3.00;1.87;;;;;;;;;;5067859;28;20450;-93
2021/09/28 07:15:11;;;;;;;3.43;1.63;;;;;;;;;;5067168;28;20447;-93
2021/09/28 07:17:38;;;;;;;1.80;1.70;;;;;;;;;;5066496;28;20447;-91
2021/09/28 07:20:08;;;;;;;3.03;1.77;;;;;;;;;;5057692;28;20494;-92
2021/09/28 07:22:37;;;;;;;5.17;2.30;;;;;;;;;;5059660;28;20458;-91
2021/09/28 07:25:04;;;;;;;4.53;1.87;;;;;;;;;;5056143;28;20459;-92
2021/09/28 07:27:32;;;;;;;6.13;1.80;;;;;;;;;;5056947;28;20459;-93
2021/09/28 07:29:59;;;;;;;6.00;1.97;;;;;;;;;;5056653;28;20439;-91
2021/09/28 07:32:26;;;;;;;3.50;1.80;;;;;;;;;;5057834;28;20447;-92
2021/09/28 07:34:54;;;;;;;3.40;1.47;;;;;;;;;;5005863;28;1074746;-93
2021/09/28 07:37:27;;;;;;;5.40;2.10;;;17.50;99.90;;;;;;5054383;28;20454;-94
2021/09/28 07:39:54;;;;;;;3.20;1.83;;;17.90;99.90;;;;;;5053253;28;20478;-93
2021/09/28 07:42:22;;;;;;;6.00;1.77;;;;;;;;;;5058818;28;20451;-92
2021/09/28 07:44:49;;;;;;;6.80;1.80;;;;;;;;;;5053538;28;20455;-92
2021/09/28 07:47:16;;;;;;;4.67;1.60;;;;;;;;;;5056666;28;20466;-92
2021/09/28 07:49:43;;;;;;;5.13;2.13;;;;;;;;;;5053788;28;20454;-95
2021/09/28 07:52:10;;;;;;;4.30;2.43;;;;;;;;;;5056216;28;20465;-93
2021/09/28 07:54:40;;;;;;;3.93;1.73;;;;;;;;;;5056349;28;20453;-93
2021/09/28 07:57:08;;;;;;;2.77;2.00;;;17.20;99.90;;;;;;5056205;28;20867;-93
2021/09/28 07:59:35;;;;;;;6.07;1.60;;;;;;;;;;5056133;28;20528;-93
2021/09/28 08:02:02;;;;;;;4.30;1.80;;;;;;;;;;5052915;28;20438;-93
2021/09/28 08:04:30;;;;;;;5.40;2.00;;;;;;;;;;5055307;28;20450;-94
2021/09/28 08:06:57;;;;;;;2.90;1.70;;;;;;;;;;5056261;28;20447;-92
2021/09/28 08:09:24;;;;;;;5.93;1.77;;;;;;;;;;5055701;28;20485;-93
2021/09/28 08:11:55;;;;;;;4.27;2.03;;;;;;;;;;5052730;28;20454;-93
2021/09/28 08:14:22;;;;;;;4.20;1.67;;;;;;;;;;5053039;28;20459;-92
2021/09/28 08:16:51;;;;;;;4.07;1.87;;;;;;;;;;5057581;28;20446;-93
2021/09/28 08:19:18;;;;;;;3.10;1.73;;;;;;;;;;5055477;28;20449;-92
2021/09/28 08:21:46;;;;;;;4.93;2.20;;;;;;;;;;5058646;28;20497;-92
2021/09/28 08:24:13;;;;;;;6.50;1.70;;;;;;;;;;5060782;28;20459;-88
2021/09/28 08:29:27;;;;;;;4.60;1.90;;;20.30;99.90;;;;;;5057897;28;20442;-91
2021/09/28 08:31:55;;;;;;;32.73;29.73;;;;;;;;;;5040512;28;20444;-90
2021/09/28 08:34:22;;;;;;;5.47;2.20;;;;;;;;;;5044170;28;20435;-92
2021/09/28 08:36:50;;;;;;;5.33;1.97;;;19.60;99.90;;;;;;5043278;28;20524;-91
2021/09/28 08:39:18;;;;;;;4.00;2.23;;;;;;;;;;5079086;23;20477;-93
2021/09/28 08:41:47;;;;;;;21.07;19.57;;;;;;;;;;5060606;22;21014;-90
2021/09/28 08:44:14;;;;;;;6.23;2.00;;;;;;;;;;5042731;28;20467;-91
2021/09/28 08:46:47;;;;;;;5.23;1.93;;;20.20;99.90;;;;;;5047330;28;20439;-90
2021/09/28 08:49:15;;;;;;;7.37;2.10;;;20.50;99.90;;;;;;5045761;28;20444;-91
2021/09/28 08:51:43;;;;;;;5.80;1.80;;;;;;;;;;5044157;28;20450;-90
2021/09/28 08:54:10;;;;;;;4.43;2.00;;;;;;;;;;5055754;23;20483;-92
2021/09/28 08:56:37;;;;;;;3.43;2.00;;;;;;;;;;5050488;28;20466;-90
2021/09/28 08:59:07;;;;;;;4.13;1.87;;;16.90;99.90;;;;;;5104165;22;20852;-87
2021/09/28 09:01:34;;;;;;;2.67;1.70;;;;;;;;;;5090987;28;20488;-92
2021/09/28 09:04:15;;;;;;;5.23;1.70;;;18.20;99.90;;;;;;5094534;28;20528;-93
2021/09/28 09:06:44;;;;;;;4.40;1.90;;;;;;;;;;5095605;28;20429;-93
2021/09/28 09:09:11;;;;;;;5.17;1.73;;;;;;;;;;5092547;28;20495;-91
2021/09/28 09:11:40;;;;;;;7.97;1.90;;;16.30;99.90;;;;;;5096247;28;20464;-92
2021/09/28 09:14:16;;;;;;;3.73;2.07;;;16.10;99.90;;;;;;5091099;28;20459;-89
2021/09/28 09:16:44;;;;;;;6.27;2.07;;;17.20;99.90;;;;;;5090908;28;20445;-91
2021/09/28 09:19:16;;;;;;;5.83;2.00;;;18.80;99.90;;;;;;5091095;28;20440;-89
2021/09/28 09:21:45;;;;;;;5.73;2.10;;;18.80;99.90;;;;;;5095669;28;20542;-91
2021/09/28 09:24:12;;;;;;;2.70;1.37;;;;;;;;;;5095694;28;20445;-93
2021/09/28 09:26:45;;;;;;;4.30;1.90;;;20.60;99.90;;;;;;5098052;28;20455;-89
2021/09/28 09:29:14;;;;;;;7.23;1.70;;;20.50;99.90;;;;;;5097908;28;20451;-89
2021/09/28 09:31:54;;;;;;;4.33;1.93;;;21.60;99.00;;;;;;5097569;28;20451;-91
2021/09/28 09:34:24;;;;;;;6.97;2.17;;;;;;;;;;5090291;28;20448;-95
2021/09/28 09:37:02;;;;;;;4.10;1.67;;;21.80;95.80;;;;;;5095391;28;20445;-90
2021/09/28 09:39:46;;;;;;;2.93;1.77;;;20.30;98.30;;;;;;5096441;28;20451;-93
2021/09/28 09:42:13;;;;;;;3.90;2.33;;;;;;;;;;5098428;28;20494;-93
2021/09/28 09:44:42;;;;;;;4.73;2.10;;;;;;;;;;5108448;28;20441;-91
2021/09/28 09:47:26;;;;;;;5.17;2.00;;;18.70;99.90;;;;;;5104205;28;20502;-91
2021/09/28 09:50:12;;;;;;;2.53;1.83;;;18.20;99.90;;;;;;5059077;28;20465;-91
2021/09/28 09:53:11;;;;;;;3.67;2.00;;;19.30;99.90;;;;;;5053644;28;20434;-92
2021/09/28 09:55:43;;;;;;;3.00;1.70;;;20.00;99.90;;;;;;5048274;28;20478;-91
2021/09/28 09:58:10;;;;;;;2.90;2.00;;;20.80;99.70;;;;;;5039181;28;20475;-92
2021/09/28 10:00:40;;;;;;;6.33;2.53;;;;;;;;;;5036594;28;20470;-89
2021/09/28 10:03:08;;;;;;;3.90;2.30;;;19.70;99.90;;;;;;5035535;28;21339;-93
2021/09/28 10:05:38;;;;;;;4.13;2.50;;;19.20;99.90;;;;;;5034278;28;20447;-90
2021/09/28 10:08:08;;;;;;;3.30;2.30;;;19.00;99.90;;;;;;5034343;28;20451;-90
2021/09/28 10:10:36;;;;;;;3.30;2.20;;;;;;;;;;5035757;28;20450;-92
2021/09/28 10:13:04;;;;;;;3.60;2.50;;;;;;;;;;5035643;28;20446;-93
2021/09/28 10:15:34;;;;;;;2.80;2.60;;;18.30;99.90;;;;;;5037576;28;20482;-92
2021/09/28 10:18:05;;;;;;;4.40;2.30;;;;;;;;;;5035151;28;20455;-91
2021/09/28 10:20:33;;;;;;;5.90;2.90;;;17.60;99.90;;;;;;5052808;28;20947;-91
2021/09/28 10:23:13;;;;;;;4.63;2.73;;;17.20;99.90;;;;;;5082467;28;20441;-92
2021/09/28 10:25:45;;;;;;;5.40;2.60;;;16.90;99.90;;;;;;5078748;28;20445;-92
2021/09/28 10:28:39;;;;;;;8.00;2.40;;;16.80;99.90;;;;;;5077002;28;20458;-90
2021/09/28 10:31:11;;;;;;;5.43;2.80;;;17.00;99.90;;;;;;5076490;28;20450;-91
2021/09/28 10:33:40;;;;;;;4.10;2.37;;;17.20;99.90;;;;;;5078410;28;20822;-90
2021/09/28 10:36:11;;;;;;;5.60;2.93;;;17.40;99.90;;;;;;5075130;28;20434;-90
2021/09/28 10:39:01;;;;;;;5.47;3.30;;;17.50;99.90;;;;;;5080573;28;20522;-92
2021/09/28 10:41:38;;;;;;;4.50;3.00;;;17.80;99.90;;;;;;5071469;28;20495;-90
2021/09/28 10:44:47;;;;;;;4.30;2.80;;;18.80;99.90;;;;;;5079868;28;20469;-90
2021/09/28 10:47:48;;;;;;;5.70;2.80;;;19.20;99.30;;;;;;5085639;28;20469;-93
2021/09/28 10:50:20;;;;;;;3.37;2.50;;;20.00;99.90;;;;;;5084632;28;20490;-92
2021/09/28 10:52:47;;;;;;;3.63;2.40;;;;;;;;;;5079670;28;20433;-91
2021/09/28 10:55:40;;;;;;;4.20;2.30;;;20.30;99.90;;;;;;5080605;28;20426;-92
2021/09/28 10:58:22;;;;;;;7.03;2.40;;;;;;;;;;5077276;28;20441;-96
2021/09/28 11:01:09;;;;;;;5.37;2.70;;;19.00;98.60;;;;;;5079505;28;20485;-90
2021/09/28 11:03:59;;;;;;;2.97;2.37;;;19.90;97.30;;;;;;5078417;28;20445;-92
2021/09/28 11:06:51;;;;;;;4.20;2.97;;;21.20;99.90;;;;;;5079575;28;20959;-92
2021/09/28 11:09:20;;;;;;;6.27;2.00;;;19.80;95.60;;;;;;5077532;28;20441;-92
2021/09/28 11:11:53;;;;;;;3.70;2.40;;;19.80;98.50;;;;;;5077083;28;20497;-92
2021/09/28 11:14:20;;;;;;;4.53;2.60;;;;;;;;;;5077650;28;20956;-95
2021/09/28 11:16:53;;;;;;;7.80;1.93;;;20.70;94.60;;;;;;5074867;28;20949;-95
2021/09/28 11:19:20;;;;;;;5.27;2.13;;;;;;;;;;5075028;28;20430;-93
2021/09/28 11:21:49;;;;;;;8.33;2.53;;;20.00;95.10;;;;;;5073693;28;20481;-94
2021/09/28 11:24:22;;;;;;;5.27;3.00;;;20.00;96.80;;;;;;5091557;28;20442;-93
2021/09/28 11:26:50;;;;;;;2.67;2.40;;;;;;;;;;5080049;28;20477;-95
2021/09/28 11:29:26;;;;;;;13.80;3.37;;;20.60;96.50;;;;;;5074258;28;20446;-94
2021/09/28 11:31:53;;;;;;;5.27;3.50;;;;;;;;;;5077792;28;20445;-93
2021/09/28 11:34:31;;;;;;;5.03;2.77;;;19.30;99.90;;;;;;5082178;28;20438;-94
2021/09/28 11:37:10;;;;;;;4.87;2.80;;;;;;;;;;5075319;28;20457;-94
2021/09/28 11:39:39;;;;;;;4.33;2.90;;;;;;;;;;5089170;28;20450;-94
2021/09/28 11:44:42;;;;;;;3.03;2.27;;;19.70;98.70;;;;;;5083993;28;20484;-93
2021/09/28 11:47:13;;;;;;;4.20;2.20;;;20.10;97.80;;;;;;5066096;28;20485;-95
2021/09/28 11:49:53;;;;;;;5.10;2.50;;;20.70;97.00;;;;;;5054434;28;20797;-93
2021/09/28 11:52:21;;;;;;;3.10;2.00;;;;;;;;;;5053435;28;20457;-94
2021/09/28 11:54:52;;;;;;;5.37;2.50;;;;;;;;;;5066348;28;20938;-95
2021/09/28 11:57:20;;;;;;;3.17;2.27;;;;;;;;;;5055248;28;20958;-94
2021/09/28 11:59:50;;;;;;;6.53;2.37;;;;;;;;;;5054036;28;20435;-94
2021/09/28 12:02:20;;;;;;;3.70;2.23;;;21.20;96.30;;;;;;5056093;28;20486;-90
2021/09/28 12:05:24;;;;;;;3.47;2.40;;;;;;;;;;5052666;28;20454;-95
2021/09/28 12:10:41;;;;;;;3.80;2.37;;;21.80;95.50;;;;;;4997673;28;20429;-95
2021/09/28 12:13:18;;;;;;;3.70;2.33;;;;;;;;;;4994515;28;20445;-93
2021/09/28 12:16:06;;;;;;;5.80;3.00;;;21.40;93.40;;;;;;4993533;28;20449;-93
2021/09/28 12:18:34;;;;;;;5.70;2.30;;;;;;;;;;4995767;28;20507;-93
2021/09/28 12:21:12;;;;;;;4.23;2.40;;;21.60;95.30;;;;;;4994217;28;20453;-93
2021/09/28 12:23:39;;;;;;;2.00;1.73;;;;;;;;;;4990025;28;20456;-93
2021/09/28 12:26:07;;;;;;;2.50;2.10;;;;;;;;;;5036449;28;20827;-93
2021/09/28 12:28:41;;;;;;;2.93;2.07;;;21.60;93.70;;;;;;5054892;28;20868;-95
2021/09/28 12:31:09;;;;;;;3.50;1.93;;;;;;;;;;5046764;28;20541;-94
2021/09/28 12:33:38;;;;;;;4.83;2.60;;;;;;;;;;5053530;28;20453;-96
2021/09/28 12:36:05;;;;;;;5.47;2.90;;;;;;;;;;5048714;28;20458;-96
2021/09/28 12:38:32;;;;;;;2.67;2.37;;;;;;;;;;5054511;28;20455;-92
2021/09/28 12:41:05;;;;;;;3.77;2.77;;;19.80;94.60;;;;;;5054335;28;20443;-94
2021/09/28 12:43:32;;;;;;;4.27;2.60;;;;;;;;;;5063386;28;20988;-93
2021/09/28 12:46:02;;;;;;;4.30;3.20;;;18.60;96.80;;;;;;5074910;28;20450;-94
2021/09/28 12:48:36;;;;;;;3.30;2.90;;;18.70;96.70;;;;;;5075221;28;20456;-92
2021/09/28 12:51:10;;;;;;;3.50;2.23;;;19.50;97.00;;;;;;5066277;28;20471;-94
2021/09/28 12:53:43;;;;;;;5.67;2.60;;;;;;;;;;5084918;28;20437;-92
2021/09/28 12:56:10;;;;;;;5.63;3.00;;;;;;;;;;5088279;28;20453;-93
2021/09/28 12:58:38;;;;;;;3.83;2.60;;;;;;;;;;5077570;28;20442;-95
2021/09/28 13:01:06;;;;;;;5.73;3.00;;;;;;;;;;5077667;28;20545;-94
2021/09/28 13:03:34;;;;;;;4.33;2.87;;;;;;;;;;5073939;28;20446;-94
2021/09/28 13:06:09;;;;;;;7.13;2.97;;;19.30;96.00;;;;;;5075933;28;20450;-92
2021/09/28 13:08:37;;;;;;;2.90;2.60;;;;;;;;;;5077883;28;20441;-93
2021/09/28 13:11:06;;;;;;;6.33;2.93;;;19.70;95.40;;;;;;5081184;28;21210;-94
2021/09/28 13:13:34;;;;;;;9.33;3.20;;;18.70;96.30;;;;;;5078420;28;20453;-93
2021/09/28 13:16:02;;;;;;;4.03;2.60;;;;;;;;;;5076073;28;20454;-93
2021/09/28 13:18:30;;;;;;;3.90;2.90;;;;;;;;;;5072161;28;20461;-93
2021/09/28 13:20:59;;;;;;;6.83;2.90;;;;;;;;;;5080844;28;20442;-91
2021/09/28 13:23:26;;;;;;;4.70;2.80;;;;;;;;;;5086081;28;20548;-92
2021/09/28 13:25:54;;;;;;;3.43;2.90;;;;;;;;;;5089132;28;20476;-90
2021/09/28 13:28:26;;;;;;;4.90;2.97;;;19.70;95.50;;;;;;5087431;28;20465;-92
2021/09/28 13:33:44;;;;;;;5.63;3.30;;;;;;;;;;5039846;28;20447;-94
2021/09/28 13:36:20;;;;;;;6.47;3.23;;;;;;;;;;5040959;28;20506;-92
2021/09/28 13:38:48;;;;;;;5.37;3.43;;;;;;;;;;5036317;28;20458;-94
2021/09/28 13:41:15;;;;;;;4.17;2.53;;;;;;;;;;5029988;28;20473;-93
2021/09/28 13:43:43;;;;;;;3.50;2.40;;;;;;;;;;5038532;28;20467;-96
2021/09/28 13:48:54;;;;;;;4.37;2.97;;;;;;;;;;5043649;28;20444;-94
2021/09/28 13:51:23;;;;;;;6.13;3.20;;;;;;;;;;5041814;28;20472;-95
2021/09/28 13:53:50;;;;;;;4.83;3.23;;;;;;;;;;5032383;28;20475;-95
2021/09/28 13:56:17;;;;;;;3.00;2.70;;;;;;;;;;5037026;28;20462;-93
2021/09/28 13:58:45;;;;;;;7.73;3.30;;;;;;;;;;5034074;28;20460;-94
2021/09/28 14:01:12;;;;;;;4.90;3.30;;;;;;;;;;5018677;28;20476;-93
2021/09/28 14:03:40;;;;;;;5.60;3.83;;;;;;;;;;5022826;28;20472;-93
2021/09/28 14:06:07;;;;;;;6.83;3.93;;;;;;;;;;5031080;28;20452;-94
2021/09/28 14:08:43;;;;;;;6.73;3.87;;;;;;;;;;5032854;28;20448;-95
2021/09/28 14:11:11;;;;;;;4.00;3.70;;;;;;;;;;5025198;28;20456;-94
2021/09/28 14:13:38;;;;;;;3.30;3.10;;;;;;;;;;5027898;28;20459;-92
2021/09/28 14:16:05;;;;;;;8.10;3.83;;;;;;;;;;5038716;28;20451;-93
2021/09/28 14:18:33;;;;;;;4.07;3.33;;;;;;;;;;5037311;28;20458;-95
2021/09/28 14:21:00;;;;;;;3.87;3.43;;;;;;;;;;5040485;28;20435;-92
2021/09/28 14:23:27;;;;;;;6.07;3.50;;;;;;;;;;5041875;28;21051;-94
2021/09/28 14:25:56;;;;;;;4.63;3.67;;;;;;;;;;5051775;28;20462;-94
2021/09/28 14:28:23;;;;;;;4.87;3.30;;;;;;;;;;5047854;28;20505;-93
2021/09/28 14:30:51;;;;;;;7.30;4.00;;;;;;;;;;5038426;28;20456;-95
2021/09/28 14:33:18;;;;;;;4.43;3.83;;;;;;;;;;5071759;28;20457;-94